createdAt,value
2019-02-18T00:02:22.648Z,13.60
2019-02-18T00:04:54.338Z,10.53
2019-02-18T00:07:26.024Z,10.37
2019-02-18T00:09:57.734Z,13.30
2019-02-18T00:12:29.450Z,11.10
2019-02-18T00:15:01.134Z,14.30
2019-02-18T00:17:32.964Z,17.17
2019-02-18T00:20:04.815Z,15.73
2019-02-18T00:22:36.509Z,13.20
2019-02-18T00:25:08.169Z,12.97
2019-02-18T00:27:39.847Z,13.67
2019-02-18T00:30:11.614Z,13.10
2019-02-18T00:32:43.390Z,10.83
2019-02-18T00:35:15.083Z,12.87
2019-02-18T00:37:46.739Z,12.27
2019-02-18T00:40:18.420Z,10.43
2019-02-18T00:42:50.081Z,13.03
2019-02-18T00:45:21.775Z,12.47
2019-02-18T00:47:53.474Z,11.50
2019-02-18T00:50:25.206Z,15.03
2019-02-18T00:52:56.887Z,13.30
2019-02-18T00:55:28.553Z,12.33
2019-02-18T00:58:00.273Z,12.43
2019-02-18T01:00:31.931Z,11.83
2019-02-18T01:03:04.004Z,10.97
2019-02-18T01:05:35.761Z,13.33
2019-02-18T01:08:07.481Z,10.60
2019-02-18T01:10:39.274Z,10.77
2019-02-18T01:13:11.061Z,15.73
2019-02-18T01:15:42.791Z,9.90
2019-02-18T01:18:14.535Z,10.70
2019-02-18T01:20:46.307Z,13.03
2019-02-18T01:23:17.985Z,17.57
2019-02-18T01:25:49.668Z,14.40
2019-02-18T01:28:21.376Z,12.97
2019-02-18T01:30:53.137Z,10.83
2019-02-18T01:33:24.906Z,12.13
2019-02-18T01:35:56.570Z,8.63
2019-02-18T01:38:28.271Z,13.00
2019-02-18T01:41:00.065Z,10.07
2019-02-18T01:43:31.870Z,12.57
2019-02-18T01:46:03.594Z,11.20
2019-02-18T01:48:35.362Z,10.93
2019-02-18T01:51:07.054Z,15.87
2019-02-18T01:53:38.784Z,10.23
2019-02-18T01:56:10.450Z,15.40
2019-02-18T01:58:42.184Z,10.33
2019-02-18T02:01:13.843Z,11.67
2019-02-18T02:03:45.544Z,9.40
2019-02-18T02:06:17.219Z,12.20
2019-02-18T02:08:48.894Z,9.00
2019-02-18T02:11:20.667Z,12.70
2019-02-18T02:13:52.394Z,13.27
2019-02-18T02:16:24.163Z,12.37
2019-02-18T02:18:55.841Z,15.43
2019-02-18T02:21:27.481Z,11.07
2019-02-18T02:23:59.326Z,15.50
2019-02-18T02:26:31.007Z,14.77
2019-02-18T02:29:02.797Z,12.10
2019-02-18T02:31:34.453Z,14.93
2019-02-18T02:34:06.235Z,13.13
2019-02-18T02:36:37.909Z,13.77
2019-02-18T02:39:09.684Z,11.23
2019-02-18T02:41:41.362Z,12.80
2019-02-18T02:44:13.071Z,14.90
2019-02-18T02:46:44.849Z,12.87
2019-02-18T02:49:16.547Z,13.23
2019-02-18T02:51:48.262Z,14.77
2019-02-18T02:54:19.982Z,11.97
2019-02-18T02:56:51.676Z,16.33
2019-02-18T02:59:23.394Z,16.30
2019-02-18T03:01:55.173Z,13.50
2019-02-18T03:04:26.860Z,12.63
2019-02-18T03:06:58.501Z,14.07
2019-02-18T03:09:30.295Z,12.00
2019-02-18T03:12:02.000Z,14.27
2019-02-18T03:14:33.794Z,11.03
2019-02-18T03:17:05.486Z,9.53
2019-02-18T03:19:37.204Z,10.20
2019-02-18T03:22:08.992Z,13.47
2019-02-18T03:25:20.109Z,12.70
2019-02-18T03:27:57.752Z,11.07
2019-02-18T03:31:07.762Z,13.67
2019-02-18T03:34:04.911Z,13.13
2019-02-18T03:36:36.590Z,11.63
2019-02-18T03:39:08.285Z,13.03
2019-02-18T03:41:40.994Z,11.67
2019-02-18T03:44:12.902Z,14.07
2019-02-18T03:46:44.583Z,9.93
2019-02-18T03:49:16.262Z,10.10
2019-02-18T03:51:47.974Z,10.37
2019-02-18T03:54:19.640Z,13.93
2019-02-18T03:56:51.555Z,14.27
2019-02-18T03:59:23.237Z,17.90
2019-02-18T04:01:54.916Z,10.67
2019-02-18T04:04:26.697Z,13.73
2019-02-18T04:06:58.447Z,11.20
2019-02-18T04:09:30.243Z,10.93
2019-02-18T04:12:02.014Z,9.47
2019-02-18T04:14:33.721Z,16.03
2019-02-18T04:17:05.459Z,14.10
2019-02-18T04:19:37.178Z,10.63
2019-02-18T04:22:09.070Z,10.30
2019-02-18T04:24:40.859Z,12.20
2019-02-18T04:27:12.613Z,9.10
2019-02-18T04:29:44.335Z,13.73
2019-02-18T04:32:16.148Z,11.43
2019-02-18T04:34:47.851Z,10.87
2019-02-18T04:37:19.530Z,11.20
2019-02-18T04:39:51.278Z,13.73
2019-02-18T04:42:22.960Z,12.57
2019-02-18T04:44:54.672Z,12.03
2019-02-18T04:47:26.417Z,17.43
2019-02-18T04:49:58.159Z,15.87
2019-02-18T04:52:30.069Z,15.63
2019-02-18T04:55:01.750Z,13.37
2019-02-18T04:57:33.489Z,13.20
2019-02-18T05:00:08.416Z,18.20
2019-02-18T05:02:39.286Z,16.67
2019-02-18T05:05:11.246Z,13.53
2019-02-18T05:07:43.002Z,10.17
2019-02-18T05:10:14.760Z,11.60
2019-02-18T05:12:46.410Z,11.90
2019-02-18T05:15:18.118Z,9.30
2019-02-18T05:17:49.923Z,12.20
2019-02-18T05:20:21.768Z,16.57
2019-02-18T05:22:53.510Z,12.23
2019-02-18T05:25:25.184Z,10.57
2019-02-18T05:27:56.942Z,13.03
2019-02-18T05:30:29.548Z,10.13
2019-02-18T05:33:01.474Z,12.37
2019-02-18T05:35:33.165Z,11.90
2019-02-18T05:38:04.894Z,19.43
2019-02-18T05:40:36.610Z,14.40
2019-02-18T05:43:08.341Z,13.70
2019-02-18T05:45:40.053Z,11.60
2019-02-18T05:48:11.725Z,11.90
2019-02-18T05:50:43.403Z,10.03
2019-02-18T05:53:15.094Z,13.03
2019-02-18T05:55:46.794Z,12.97
2019-02-18T05:58:18.487Z,10.37
2019-02-18T06:00:50.268Z,10.33
2019-02-18T06:03:21.993Z,12.93
2019-02-18T06:05:53.779Z,11.90
2019-02-18T06:08:25.506Z,12.00
2019-02-18T06:10:57.265Z,13.77
2019-02-18T06:13:28.951Z,15.10
2019-02-18T06:16:00.702Z,11.33
2019-02-18T06:18:32.355Z,10.83
2019-02-18T06:21:04.125Z,12.27
2019-02-18T06:23:35.817Z,14.20
2019-02-18T06:26:07.499Z,12.50
2019-02-18T06:28:39.210Z,15.83
2019-02-18T06:31:10.920Z,11.13
2019-02-18T06:33:42.619Z,12.57
2019-02-18T06:36:14.356Z,11.53
2019-02-18T06:38:46.152Z,15.00
2019-02-18T06:41:17.905Z,12.63
2019-02-18T06:43:49.610Z,11.73
2019-02-18T06:46:46.441Z,12.20
2019-02-18T06:49:21.902Z,12.20
2019-02-18T06:51:53.606Z,11.27
2019-02-18T06:54:25.432Z,13.93
2019-02-18T06:57:26.987Z,13.63
2019-02-18T07:00:01.389Z,13.80
2019-02-18T07:02:36.824Z,13.63
2019-02-18T07:05:30.602Z,9.20
2019-02-18T07:08:36.676Z,15.40
2019-02-18T07:11:33.393Z,12.43
2019-02-18T07:14:05.057Z,11.73
2019-02-18T07:16:36.737Z,12.00
2019-02-18T07:19:08.468Z,17.07
2019-02-18T07:21:40.239Z,11.80
2019-02-18T07:24:12.040Z,10.70
2019-02-18T07:26:43.740Z,17.00
2019-02-18T07:29:15.504Z,11.10
2019-02-18T07:31:47.200Z,12.73
2019-02-18T07:34:18.835Z,10.70
2019-02-18T07:36:50.498Z,14.03
2019-02-18T07:39:22.285Z,10.27
2019-02-18T07:41:53.985Z,10.90
2019-02-18T07:44:25.697Z,24.17
2019-02-18T07:46:57.395Z,12.60
2019-02-18T07:49:29.179Z,18.07
2019-02-18T07:52:00.837Z,14.07
2019-02-18T07:54:32.557Z,14.57
2019-02-18T07:57:04.333Z,12.93
2019-02-18T07:59:36.153Z,10.37
2019-02-18T08:02:07.911Z,13.07
2019-02-18T08:04:39.576Z,13.00
2019-02-18T08:07:11.264Z,11.18
2019-02-18T08:09:43.039Z,11.40
2019-02-18T08:12:14.813Z,13.90
2019-02-18T08:14:46.521Z,11.90
2019-02-18T08:17:22.971Z,12.20
2019-02-18T08:19:54.767Z,12.70
2019-02-18T08:22:27.010Z,11.47
2019-02-18T08:24:59.035Z,10.60
2019-02-18T08:27:30.851Z,15.37
2019-02-18T08:30:02.915Z,10.17
2019-02-18T08:32:34.969Z,14.00
2019-02-18T08:35:06.794Z,13.55
2019-02-18T08:37:38.504Z,17.67
2019-02-18T08:40:10.310Z,16.47
2019-02-18T08:42:42.019Z,12.55
2019-02-18T08:45:13.772Z,13.30
2019-02-18T08:47:45.526Z,16.33
2019-02-18T08:50:17.269Z,9.70
2019-02-18T08:52:49.057Z,14.30
2019-02-18T08:55:20.738Z,13.73
2019-02-18T08:57:52.558Z,11.57
2019-02-18T09:00:24.336Z,18.60
2019-02-18T09:02:56.152Z,15.90
2019-02-18T09:05:27.950Z,11.50
2019-02-18T09:07:59.646Z,9.80
2019-02-18T09:10:33.877Z,15.63
2019-02-18T09:13:04.848Z,9.83
2019-02-18T09:15:36.534Z,14.03
2019-02-18T09:18:10.640Z,11.95
2019-02-18T09:20:43.456Z,14.68
2019-02-18T09:23:20.301Z,23.12
2019-02-18T09:25:54.970Z,16.00
2019-02-18T09:28:26.806Z,11.07
2019-02-18T09:30:58.595Z,15.05
2019-02-18T09:33:30.283Z,13.27
2019-02-18T09:36:02.062Z,13.78
2019-02-18T09:38:33.816Z,15.95
2019-02-18T09:41:05.505Z,11.75
2019-02-18T09:43:37.269Z,11.88
2019-02-18T09:46:08.997Z,17.42
2019-02-18T09:48:40.748Z,11.93
2019-02-18T09:51:12.413Z,20.05
2019-02-18T09:53:44.105Z,16.48
2019-02-18T09:56:16.749Z,16.60
2019-02-18T09:58:50.179Z,11.57
2019-02-18T10:01:21.793Z,18.25
2019-02-18T10:03:53.459Z,14.25
2019-02-18T10:06:25.189Z,15.17
2019-02-18T10:08:57.123Z,12.10
2019-02-18T10:11:28.883Z,14.43
2019-02-18T10:14:00.569Z,13.68
2019-02-18T10:16:32.734Z,15.75
2019-02-18T10:19:04.417Z,15.50
2019-02-18T10:21:36.158Z,12.93
2019-02-18T10:24:07.869Z,15.58
2019-02-18T10:26:39.727Z,19.75
2019-02-18T10:29:11.504Z,13.18
2019-02-18T10:31:43.196Z,14.95
2019-02-18T10:34:14.874Z,11.73
2019-02-18T10:36:46.640Z,11.40
2019-02-18T10:39:19.294Z,15.18
2019-02-18T10:41:51.083Z,16.80
2019-02-18T10:44:22.881Z,12.75
2019-02-18T10:46:54.564Z,16.35
2019-02-18T10:49:26.313Z,15.08
2019-02-18T10:51:58.110Z,17.67
2019-02-18T10:54:29.964Z,14.30
2019-02-18T10:57:01.834Z,12.95
2019-02-18T10:59:33.608Z,17.50
2019-02-18T11:02:05.580Z,15.15
2019-02-18T11:04:43.040Z,21.23
2019-02-18T11:07:15.794Z,10.00
2019-02-18T11:09:47.598Z,13.30
2019-02-18T11:12:19.343Z,21.45
2019-02-18T11:14:51.104Z,19.48
2019-02-18T11:17:23.242Z,16.30
2019-02-18T11:19:55.878Z,11.20
2019-02-18T11:22:31.805Z,15.90
2019-02-18T11:25:03.870Z,13.22
2019-02-18T11:27:35.636Z,22.50
2019-02-18T11:30:10.003Z,17.95
2019-02-18T11:32:41.849Z,14.73
2019-02-18T11:35:13.754Z,18.98
2019-02-18T11:37:50.279Z,14.70
2019-02-18T11:40:22.920Z,12.60
2019-02-18T11:42:55.183Z,14.73
2019-02-18T11:45:27.071Z,13.45
2019-02-18T11:47:59.114Z,15.88
2019-02-18T11:50:30.946Z,17.02
2019-02-18T11:53:02.721Z,14.03
2019-02-18T11:55:34.594Z,21.12
2019-02-18T11:58:06.419Z,23.05
2019-02-18T12:00:38.357Z,13.22
2019-02-18T12:03:12.579Z,24.50
2019-02-18T12:05:43.548Z,12.58
2019-02-18T12:08:15.390Z,13.10
2019-02-18T12:10:47.224Z,14.80
2019-02-18T12:13:19.012Z,17.62
2019-02-18T12:15:51.083Z,15.40
2019-02-18T12:18:26.303Z,15.15
2019-02-18T12:20:58.034Z,16.42
2019-02-18T12:23:29.759Z,11.10
2019-02-18T12:26:01.526Z,12.40
2019-02-18T12:28:33.298Z,11.28
2019-02-18T12:31:08.256Z,16.15
2019-02-18T12:33:40.147Z,12.68
2019-02-18T12:36:11.931Z,14.03
2019-02-18T12:38:43.593Z,14.68
2019-02-18T12:41:15.270Z,13.20
2019-02-18T12:43:47.233Z,15.18
2019-02-18T12:46:19.025Z,17.37
2019-02-18T12:48:50.960Z,13.98
2019-02-18T12:51:22.824Z,11.50
2019-02-18T12:54:04.521Z,13.68
2019-02-18T12:56:28.081Z,12.82
2019-02-18T12:58:59.943Z,14.00
2019-02-18T13:01:31.684Z,13.72
2019-02-18T13:04:03.438Z,11.57
2019-02-18T13:06:35.185Z,14.80
2019-02-18T13:09:07.305Z,30.75
2019-02-18T13:11:39.529Z,14.87
2019-02-18T13:14:11.297Z,11.10
2019-02-18T13:16:43.037Z,14.13
2019-02-18T13:19:14.835Z,16.12
2019-02-18T13:21:46.692Z,13.93
2019-02-18T13:24:18.511Z,10.68
2019-02-18T13:26:50.268Z,12.45
2019-02-18T13:29:22.109Z,11.57
2019-02-18T13:31:53.831Z,11.83
2019-02-18T13:34:25.546Z,17.40
2019-02-18T13:36:58.323Z,13.13
2019-02-18T13:39:30.175Z,11.03
2019-02-18T13:42:07.381Z,12.93
2019-02-18T13:44:35.323Z,14.33
2019-02-18T13:47:07.101Z,16.90
2019-02-18T13:49:39.258Z,9.43
2019-02-18T13:52:10.975Z,10.80
2019-02-18T13:54:42.823Z,15.58
2019-02-18T13:57:14.736Z,12.58
2019-02-18T13:59:46.498Z,11.70
2019-02-18T14:02:18.688Z,14.43
2019-02-18T14:04:50.537Z,12.50
2019-02-18T14:07:22.376Z,13.10
2019-02-18T14:09:54.162Z,15.70
2019-02-18T14:12:25.902Z,10.68
2019-02-18T14:14:58.034Z,11.48
2019-02-18T14:17:29.728Z,11.15
2019-02-18T14:20:01.498Z,11.00
2019-02-18T14:22:33.265Z,11.40
2019-02-18T14:25:05.517Z,16.00
2019-02-18T14:27:37.598Z,13.40
2019-02-18T14:30:11.064Z,17.32
2019-02-18T14:32:42.779Z,8.48
2019-02-18T14:35:16.071Z,9.40
2019-02-18T14:37:48.228Z,16.25
2019-02-18T14:40:21.238Z,16.17
2019-02-18T14:42:52.965Z,10.63
2019-02-18T14:45:24.721Z,10.82
2019-02-18T14:47:56.547Z,15.48
2019-02-18T14:50:28.274Z,15.25
2019-02-18T14:53:00.113Z,16.62
2019-02-18T14:55:31.929Z,16.67
2019-02-18T14:58:05.241Z,15.20
2019-02-18T15:00:37.420Z,13.10
2019-02-18T15:03:09.591Z,15.20
2019-02-18T15:05:41.431Z,12.73
2019-02-18T15:08:13.185Z,13.40
2019-02-18T15:10:44.989Z,10.53
2019-02-18T15:13:19.096Z,16.37
2019-02-18T15:15:50.947Z,21.02
2019-02-18T15:18:23.143Z,13.22
2019-02-18T15:20:54.959Z,26.35
2019-02-18T15:23:26.731Z,22.25
2019-02-18T15:25:58.378Z,17.85
2019-02-18T15:28:30.149Z,15.20
2019-02-18T15:31:01.943Z,14.98
2019-02-18T15:33:33.684Z,17.62
2019-02-18T15:36:05.500Z,14.95
2019-02-18T15:38:37.266Z,12.95
2019-02-18T15:41:09.136Z,14.90
2019-02-18T15:43:41.107Z,10.25
2019-02-18T15:46:12.966Z,10.68
2019-02-18T15:48:44.739Z,10.58
2019-02-18T15:51:17.931Z,11.78
2019-02-18T15:53:49.715Z,14.60
2019-02-18T15:56:21.468Z,13.20
2019-02-18T15:58:53.290Z,15.38
2019-02-18T16:01:25.054Z,14.07
2019-02-18T16:03:57.208Z,13.80
2019-02-18T16:06:28.990Z,15.72
2019-02-18T16:09:00.830Z,16.82
2019-02-18T16:11:32.596Z,16.80
2019-02-18T16:14:04.369Z,10.82
2019-02-18T16:16:37.753Z,14.30
2019-02-18T16:19:09.506Z,16.42
2019-02-18T16:21:41.343Z,17.82
2019-02-18T16:24:19.914Z,15.90
2019-02-18T16:26:46.502Z,12.30
2019-02-18T16:29:18.938Z,15.95
2019-02-18T16:31:51.130Z,11.53
2019-02-18T16:34:22.952Z,12.93
2019-02-18T16:36:54.679Z,11.75
2019-02-18T16:39:26.490Z,17.05
2019-02-18T16:41:59.623Z,11.83
2019-02-18T16:44:31.575Z,18.95
2019-02-18T16:47:03.465Z,13.58
2019-02-18T16:49:35.527Z,10.98
2019-02-18T16:52:07.728Z,22.80
2019-02-18T16:54:39.479Z,12.17
2019-02-18T16:57:11.253Z,17.17
2019-02-18T16:59:42.998Z,20.05
2019-02-18T17:02:14.869Z,23.42
2019-02-18T17:04:46.919Z,22.40
2019-02-18T17:07:18.876Z,21.77
2019-02-18T17:09:50.677Z,22.97
2019-02-18T17:12:22.353Z,24.90
2019-02-18T17:14:54.144Z,25.80
2019-02-18T17:17:26.442Z,34.47
2019-02-18T17:19:58.246Z,19.83
2019-02-18T17:22:30.020Z,26.67
2019-02-18T17:25:01.721Z,20.40
2019-02-18T17:27:33.470Z,20.20
2019-02-18T17:30:05.975Z,26.77
2019-02-18T17:32:37.787Z,25.90
2019-02-18T17:35:12.078Z,32.03
2019-02-18T17:37:43.975Z,32.87
2019-02-18T17:40:15.850Z,28.90
2019-02-18T17:42:48.025Z,25.73
2019-02-18T17:45:20.332Z,27.47
2019-02-18T17:47:52.112Z,25.80
2019-02-18T17:50:23.911Z,25.10
2019-02-18T17:52:55.771Z,28.23
2019-02-18T17:55:28.686Z,24.27
2019-02-18T17:58:00.520Z,28.43
2019-02-18T18:00:33.876Z,20.20
2019-02-18T18:03:05.657Z,36.63
2019-02-18T18:05:37.442Z,29.27
2019-02-18T18:08:09.300Z,31.67
2019-02-18T18:10:41.101Z,38.13
2019-02-18T18:13:12.965Z,38.03
2019-02-18T18:15:44.688Z,28.10
2019-02-18T18:18:16.512Z,40.17
2019-02-18T18:20:48.428Z,33.70
2019-02-18T18:23:20.262Z,36.03
2019-02-18T18:25:52.016Z,36.20
2019-02-18T18:28:23.825Z,30.33
2019-02-18T18:30:55.596Z,29.10
2019-02-18T18:33:27.418Z,31.97
2019-02-18T18:35:59.143Z,37.70
2019-02-18T18:38:30.910Z,31.80
2019-02-18T18:41:02.731Z,29.23
2019-02-18T18:43:34.583Z,34.00
2019-02-18T18:46:06.435Z,29.17
2019-02-18T18:48:38.137Z,27.03
2019-02-18T18:51:09.920Z,32.67
2019-02-18T18:53:43.830Z,34.27
2019-02-18T18:56:15.848Z,31.63
2019-02-18T18:58:47.649Z,41.07
2019-02-18T19:01:19.434Z,66.63
2019-02-18T19:03:51.304Z,35.60
2019-02-18T19:06:23.359Z,42.90
2019-02-18T19:08:55.056Z,38.67
2019-02-18T19:11:26.765Z,50.00
2019-02-18T19:13:58.474Z,51.20
2019-02-18T19:16:30.189Z,45.30
2019-02-18T19:19:02.920Z,45.23
2019-02-18T19:21:34.789Z,39.87
2019-02-18T19:24:06.631Z,34.17
2019-02-18T19:26:38.527Z,51.97
2019-02-18T19:29:10.285Z,42.63
2019-02-18T19:31:42.370Z,35.30
2019-02-18T19:34:14.111Z,36.23
2019-02-18T19:36:45.830Z,37.90
2019-02-18T19:39:17.593Z,48.13
2019-02-18T19:41:49.376Z,41.63
2019-02-18T19:44:21.409Z,36.67
2019-02-18T19:46:53.196Z,38.00
2019-02-18T19:49:24.981Z,28.53
2019-02-18T19:51:56.756Z,32.17
2019-02-18T19:54:28.515Z,33.93
2019-02-18T19:57:00.210Z,37.13
2019-02-18T19:59:31.927Z,32.27
2019-02-18T20:02:04.755Z,36.40
2019-02-18T20:04:36.449Z,30.73
2019-02-18T20:07:08.276Z,34.87
2019-02-18T20:09:40.405Z,36.33
2019-02-18T20:12:12.251Z,34.07
2019-02-18T20:14:44.090Z,36.80
2019-02-18T20:17:15.968Z,34.33
2019-02-18T20:19:48.027Z,35.40
2019-02-18T20:22:19.723Z,31.77
2019-02-18T20:24:52.399Z,30.87
2019-02-18T20:27:24.177Z,28.07
2019-02-18T20:29:55.867Z,26.63
2019-02-18T20:32:27.843Z,26.57
2019-02-18T20:34:59.613Z,26.97
2019-02-18T20:37:31.320Z,32.60
2019-02-18T20:40:03.153Z,22.43
2019-02-18T20:42:34.916Z,24.33
2019-02-18T20:45:07.701Z,24.00
2019-02-18T20:47:40.110Z,24.00
2019-02-18T20:50:11.806Z,19.00
2019-02-18T20:52:43.662Z,25.83
2019-02-18T20:55:16.184Z,26.70
2019-02-18T20:57:47.907Z,25.00
2019-02-18T21:00:20.300Z,19.67
2019-02-18T21:02:53.108Z,27.67
2019-02-18T21:05:24.917Z,16.10
2019-02-18T21:07:57.020Z,17.93
2019-02-18T21:10:28.781Z,22.73
2019-02-18T21:13:00.506Z,24.43
2019-02-18T21:15:32.225Z,28.37
2019-02-18T21:18:03.989Z,18.30
2019-02-18T21:20:36.155Z,23.03
2019-02-18T21:23:07.933Z,23.93
2019-02-18T21:25:39.818Z,21.40
2019-02-18T21:28:11.574Z,18.70
2019-02-18T21:30:43.263Z,17.03
2019-02-18T21:33:15.005Z,16.93
2019-02-18T21:35:46.700Z,16.90
2019-02-18T21:38:18.374Z,15.53
2019-02-18T21:40:50.067Z,15.13
2019-02-18T21:43:21.787Z,17.70
2019-02-18T21:45:53.529Z,14.93
2019-02-18T21:48:25.485Z,17.20
2019-02-18T21:50:57.314Z,17.83
2019-02-18T21:53:29.087Z,14.90
2019-02-18T21:56:00.768Z,14.73
2019-02-18T21:58:32.603Z,20.03
2019-02-18T22:01:04.277Z,16.30
2019-02-18T22:03:36.045Z,17.77
2019-02-18T22:06:07.856Z,9.17
2019-02-18T22:08:41.944Z,18.80
2019-02-18T22:11:13.739Z,16.23
2019-02-18T22:13:45.511Z,15.93
2019-02-18T22:16:17.179Z,19.30
2019-02-18T22:18:48.878Z,15.73
2019-02-18T22:21:20.570Z,12.83
2019-02-18T22:23:52.265Z,13.00
2019-02-18T22:26:23.956Z,12.07
2019-02-18T22:28:55.817Z,10.23
2019-02-18T22:31:27.563Z,9.33
2019-02-18T22:33:59.321Z,11.27
2019-02-18T22:36:31.313Z,9.87
2019-02-18T22:39:04.684Z,11.37
2019-02-18T22:41:36.361Z,10.17
2019-02-18T22:44:08.147Z,11.03
2019-02-18T22:46:39.794Z,10.80
2019-02-18T22:49:11.846Z,13.60
2019-02-18T22:51:43.566Z,12.13
2019-02-18T22:54:15.238Z,8.13
2019-02-18T22:56:47.037Z,11.33
2019-02-18T22:59:18.804Z,12.37
2019-02-18T23:01:50.878Z,14.43
2019-02-18T23:04:22.582Z,11.50
2019-02-18T23:06:54.388Z,10.07
2019-02-18T23:09:26.119Z,9.40
2019-02-18T23:11:57.904Z,10.70
2019-02-18T23:14:30.168Z,13.60
2019-02-18T23:17:01.857Z,13.90
2019-02-18T23:19:33.519Z,11.97
2019-02-18T23:22:05.195Z,8.53
2019-02-18T23:24:36.863Z,11.50
2019-02-18T23:27:09.014Z,8.90
2019-02-18T23:29:40.709Z,6.03
2019-02-18T23:32:12.489Z,13.23
2019-02-18T23:34:44.315Z,7.33
2019-02-18T23:37:15.997Z,8.70
2019-02-18T23:39:47.645Z,7.17
2019-02-18T23:42:19.401Z,11.47
2019-02-18T23:44:58.845Z,10.70
2019-02-18T23:47:24.503Z,7.27
2019-02-18T23:49:56.174Z,7.37
2019-02-18T23:52:27.877Z,5.03
2019-02-18T23:54:59.534Z,3.77
2019-02-18T23:57:31.219Z,6.17
